createdAt,value
2019-05-26T00:00:23.164Z,8.00
2019-05-26T00:01:23.155Z,6.70
2019-05-26T00:02:23.166Z,7.70
2019-05-26T00:03:23.130Z,7.20
2019-05-26T00:04:23.118Z,7.40
2019-05-26T00:05:23.113Z,7.20
2019-05-26T00:06:23.095Z,7.10
2019-05-26T00:07:30.481Z,7.00
2019-05-26T00:08:24.101Z,7.10
2019-05-26T00:09:23.063Z,7.30
2019-05-26T00:10:23.050Z,6.70
2019-05-26T00:11:23.041Z,7.00
2019-05-26T00:12:23.069Z,6.20
2019-05-26T00:13:23.015Z,6.70
2019-05-26T00:14:23.006Z,6.40
2019-05-26T00:15:22.994Z,7.10
2019-05-26T00:16:22.983Z,7.50
2019-05-26T00:17:22.973Z,7.10
2019-05-26T00:18:23.060Z,7.00
2019-05-26T00:19:22.950Z,8.40
2019-05-26T00:20:22.937Z,7.30
2019-05-26T00:21:22.925Z,7.00
2019-05-26T00:22:22.916Z,7.40
2019-05-26T00:23:22.929Z,7.90
2019-05-26T00:24:22.892Z,7.70
2019-05-26T00:25:22.880Z,6.80
2019-05-26T00:26:22.869Z,7.50
2019-05-26T00:27:22.858Z,7.20
2019-05-26T00:28:22.874Z,6.80
2019-05-26T00:29:22.834Z,6.80
2019-05-26T00:30:22.826Z,7.10
2019-05-26T00:31:22.814Z,7.60
2019-05-26T00:32:22.803Z,6.90
2019-05-26T00:33:22.814Z,7.50
2019-05-26T00:34:22.780Z,7.10
2019-05-26T00:35:22.783Z,7.40
2019-05-26T00:36:22.763Z,7.90
2019-05-26T00:37:22.745Z,6.80
2019-05-26T00:38:22.765Z,7.60
2019-05-26T00:39:22.728Z,7.50
2019-05-26T00:40:22.715Z,7.60
2019-05-26T00:41:22.700Z,8.00
2019-05-26T00:42:22.689Z,7.70
2019-05-26T00:43:22.704Z,7.80
2019-05-26T00:44:22.665Z,7.30
2019-05-26T00:45:22.655Z,8.00
2019-05-26T00:46:22.645Z,8.50
2019-05-26T00:47:22.632Z,7.80
2019-05-26T00:48:22.645Z,7.00
2019-05-26T00:49:22.613Z,7.50
2019-05-26T00:50:22.600Z,7.90
2019-05-26T00:51:22.588Z,7.00
2019-05-26T00:52:22.576Z,7.10
2019-05-26T00:53:22.594Z,7.80
2019-05-26T00:54:22.552Z,8.00
2019-05-26T00:55:22.540Z,8.50
2019-05-26T00:56:22.530Z,8.40
2019-05-26T00:57:22.582Z,7.60
2019-05-26T00:58:22.536Z,7.70
2019-05-26T00:59:22.497Z,8.10
2019-05-26T01:00:22.491Z,7.80
2019-05-26T01:01:22.478Z,7.90
2019-05-26T01:02:22.462Z,7.60
2019-05-26T01:03:22.476Z,7.90
2019-05-26T01:04:22.441Z,8.00
2019-05-26T01:05:22.428Z,7.80
2019-05-26T01:06:22.418Z,8.00
2019-05-26T01:07:22.408Z,7.70
2019-05-26T01:08:22.398Z,8.70
2019-05-26T01:09:22.411Z,8.40
2019-05-26T01:10:22.372Z,8.30
2019-05-26T01:11:22.363Z,7.40
2019-05-26T01:12:22.360Z,7.90
2019-05-26T01:13:22.343Z,8.30
2019-05-26T01:14:22.350Z,8.00
2019-05-26T01:15:22.316Z,7.90
2019-05-26T01:16:22.303Z,8.00
2019-05-26T01:17:22.295Z,7.70
2019-05-26T01:18:22.282Z,7.80
2019-05-26T01:19:22.295Z,7.50
2019-05-26T01:20:22.259Z,8.00
2019-05-26T01:21:22.245Z,7.60
2019-05-26T01:22:22.238Z,8.20
2019-05-26T01:23:22.226Z,7.90
2019-05-26T01:24:22.237Z,8.10
2019-05-26T01:25:22.205Z,7.70
2019-05-26T01:26:22.191Z,7.90
2019-05-26T01:27:22.182Z,7.30
2019-05-26T01:28:22.171Z,6.90
2019-05-26T01:29:22.161Z,8.00
2019-05-26T01:30:22.173Z,8.10
2019-05-26T01:31:22.134Z,7.90
2019-05-26T01:32:22.124Z,8.10
2019-05-26T01:33:22.112Z,8.00
2019-05-26T01:34:22.099Z,8.30
2019-05-26T01:35:22.115Z,8.10
2019-05-26T01:36:22.079Z,7.70
2019-05-26T01:37:22.066Z,7.90
2019-05-26T01:38:24.190Z,7.50
2019-05-26T01:39:22.043Z,7.70
2019-05-26T01:40:22.064Z,8.20
2019-05-26T01:41:22.024Z,7.90
2019-05-26T01:42:22.012Z,7.90
2019-05-26T01:43:22.001Z,7.80
2019-05-26T01:44:21.990Z,8.80
2019-05-26T01:45:22.005Z,8.50
2019-05-26T01:46:21.966Z,7.40
2019-05-26T01:47:21.953Z,8.70
2019-05-26T01:48:21.942Z,8.60
2019-05-26T01:49:21.930Z,8.10
2019-05-26T01:50:21.944Z,7.90
2019-05-26T01:51:21.908Z,8.20
2019-05-26T01:52:21.897Z,7.60
2019-05-26T01:53:21.885Z,7.40
2019-05-26T01:54:21.874Z,7.60
2019-05-26T01:55:21.891Z,7.70
2019-05-26T01:56:21.851Z,7.90
2019-05-26T01:57:21.839Z,8.10
2019-05-26T01:58:21.832Z,8.70
2019-05-26T01:59:21.817Z,8.50
2019-05-26T02:00:21.830Z,8.80
2019-05-26T02:01:21.800Z,7.80
2019-05-26T02:02:21.782Z,7.40
2019-05-26T02:03:21.777Z,8.50
2019-05-26T02:04:21.763Z,8.40
2019-05-26T02:05:21.776Z,8.60
2019-05-26T02:06:21.738Z,8.80
2019-05-26T02:07:21.727Z,7.70
2019-05-26T02:08:21.715Z,8.00
2019-05-26T02:09:21.704Z,7.60
2019-05-26T02:10:21.701Z,8.00
2019-05-26T02:11:21.707Z,7.80
2019-05-26T02:12:21.671Z,8.20
2019-05-26T02:13:21.657Z,7.60
2019-05-26T02:14:21.649Z,8.30
2019-05-26T02:15:21.635Z,8.20
2019-05-26T02:16:21.650Z,8.30
2019-05-26T02:17:21.618Z,8.20
2019-05-26T02:18:21.606Z,8.80
2019-05-26T02:19:21.591Z,9.20
2019-05-26T02:20:21.579Z,7.70
2019-05-26T02:21:21.598Z,8.30
2019-05-26T02:22:21.556Z,8.60
2019-05-26T02:23:21.547Z,8.00
2019-05-26T02:24:21.534Z,8.80
2019-05-26T02:25:21.523Z,8.60
2019-05-26T02:26:21.536Z,9.10
2019-05-26T02:27:21.504Z,8.80
2019-05-26T02:28:21.497Z,8.70
2019-05-26T02:29:21.477Z,8.40
2019-05-26T02:30:21.467Z,7.70
2019-05-26T02:31:21.480Z,8.70
2019-05-26T02:32:21.444Z,9.00
2019-05-26T02:33:21.435Z,8.90
2019-05-26T02:34:21.428Z,8.70
2019-05-26T02:35:21.413Z,9.00
2019-05-26T02:36:21.438Z,8.90
2019-05-26T02:37:21.386Z,8.60
2019-05-26T02:38:25.659Z,8.80
2019-05-26T02:39:22.364Z,8.20
2019-05-26T02:40:21.359Z,8.30
2019-05-26T02:41:21.350Z,8.70
2019-05-26T02:42:21.360Z,8.30
2019-05-26T02:43:21.320Z,8.10
2019-05-26T02:44:21.321Z,8.40
2019-05-26T02:45:21.333Z,8.10
2019-05-26T02:46:21.290Z,7.40
2019-05-26T02:47:21.302Z,7.70
2019-05-26T02:48:21.265Z,8.00
2019-05-26T02:49:21.254Z,8.30
2019-05-26T02:50:21.244Z,8.10
2019-05-26T02:51:21.229Z,7.70
2019-05-26T02:52:21.247Z,7.90
2019-05-26T02:53:24.567Z,7.90
2019-05-26T02:54:21.194Z,7.80
2019-05-26T02:55:21.181Z,8.10
2019-05-26T02:56:21.173Z,7.50
2019-05-26T02:57:21.190Z,7.80
2019-05-26T02:58:21.152Z,8.90
2019-05-26T02:59:21.141Z,8.90
2019-05-26T03:00:21.128Z,8.60
2019-05-26T03:01:21.114Z,8.90
2019-05-26T03:02:21.132Z,8.60
2019-05-26T03:03:21.113Z,9.10
2019-05-26T03:04:21.081Z,8.40
2019-05-26T03:05:21.070Z,8.30
2019-05-26T03:06:21.059Z,8.70
2019-05-26T03:07:21.066Z,8.60
2019-05-26T03:08:21.062Z,9.00
2019-05-26T03:09:23.453Z,8.50
2019-05-26T03:10:21.014Z,8.80
2019-05-26T03:11:21.003Z,9.10
2019-05-26T03:12:20.994Z,8.50
2019-05-26T03:13:21.005Z,9.10
2019-05-26T03:14:20.980Z,9.00
2019-05-26T03:15:20.960Z,8.90
2019-05-26T03:16:20.947Z,8.80
2019-05-26T03:17:21.021Z,8.60
2019-05-26T03:18:20.949Z,9.80
2019-05-26T03:19:20.916Z,9.00
2019-05-26T03:20:20.907Z,8.90
2019-05-26T03:21:20.891Z,9.10
2019-05-26T03:22:20.879Z,9.70
2019-05-26T03:23:20.893Z,8.70
2019-05-26T03:24:20.854Z,8.60
2019-05-26T03:25:20.842Z,8.10
2019-05-26T03:26:20.837Z,9.60
2019-05-26T03:27:20.826Z,10.00
2019-05-26T03:28:20.837Z,10.30
2019-05-26T03:29:20.797Z,10.10
2019-05-26T03:30:20.789Z,9.70
2019-05-26T03:31:20.775Z,9.90
2019-05-26T03:32:20.767Z,10.10
2019-05-26T03:33:20.779Z,10.00
2019-05-26T03:34:20.755Z,10.10
2019-05-26T03:35:20.768Z,10.20
2019-05-26T03:36:20.724Z,9.30
2019-05-26T03:37:20.717Z,9.50
2019-05-26T03:38:20.720Z,10.70
2019-05-26T03:39:41.602Z,10.20
2019-05-26T03:40:21.676Z,9.90
2019-05-26T03:41:20.663Z,9.40
2019-05-26T03:42:20.655Z,10.10
2019-05-26T03:43:20.668Z,11.10
2019-05-26T03:44:20.627Z,10.60
2019-05-26T03:45:20.617Z,10.30
2019-05-26T03:46:20.632Z,11.40
2019-05-26T03:47:20.597Z,11.20
2019-05-26T03:48:20.608Z,10.30
2019-05-26T03:49:20.572Z,11.00
2019-05-26T03:50:20.559Z,9.90
2019-05-26T03:51:20.549Z,10.70
2019-05-26T03:52:20.540Z,9.70
2019-05-26T03:53:20.554Z,11.30
2019-05-26T03:54:20.523Z,12.00
2019-05-26T03:55:20.504Z,11.90
2019-05-26T03:56:20.496Z,11.30
2019-05-26T03:57:20.479Z,10.70
2019-05-26T03:58:20.627Z,11.90
2019-05-26T03:59:20.457Z,11.70
2019-05-26T04:00:20.462Z,12.00
2019-05-26T04:01:20.446Z,11.30
2019-05-26T04:02:20.424Z,11.70
2019-05-26T04:03:20.444Z,12.10
2019-05-26T04:04:20.402Z,11.80
2019-05-26T04:05:20.394Z,10.70
2019-05-26T04:06:20.386Z,11.10
2019-05-26T04:07:20.369Z,11.20
2019-05-26T04:08:20.359Z,11.40
2019-05-26T04:09:20.369Z,10.90
2019-05-26T04:10:20.333Z,10.60
2019-05-26T04:11:20.332Z,11.10
2019-05-26T04:12:20.311Z,10.90
2019-05-26T04:13:20.300Z,10.70
2019-05-26T04:14:20.315Z,10.30
2019-05-26T04:15:20.284Z,10.30
2019-05-26T04:16:20.270Z,10.80
2019-05-26T04:17:20.255Z,10.60
2019-05-26T04:18:20.246Z,11.10
2019-05-26T04:19:20.258Z,11.10
2019-05-26T04:20:20.224Z,10.00
2019-05-26T04:21:20.219Z,10.30
2019-05-26T04:22:20.196Z,9.80
2019-05-26T04:23:20.187Z,10.50
2019-05-26T04:24:20.200Z,10.60
2019-05-26T04:25:20.166Z,10.00
2019-05-26T04:26:20.154Z,10.70
2019-05-26T04:27:20.150Z,10.90
2019-05-26T04:28:20.134Z,10.80
2019-05-26T04:29:20.143Z,10.60
2019-05-26T04:30:20.108Z,9.80
2019-05-26T04:31:20.095Z,10.50
2019-05-26T04:32:20.086Z,10.80
2019-05-26T04:33:20.078Z,11.30
2019-05-26T04:34:20.087Z,10.80
2019-05-26T04:35:20.065Z,9.70
2019-05-26T04:36:20.038Z,10.30
2019-05-26T04:37:20.027Z,10.50
2019-05-26T04:38:20.020Z,10.00
2019-05-26T04:39:20.031Z,11.40
2019-05-26T04:40:26.954Z,11.10
2019-05-26T04:41:20.995Z,11.00
2019-05-26T04:42:19.976Z,11.40
2019-05-26T04:43:19.967Z,10.50
2019-05-26T04:44:19.949Z,11.90
2019-05-26T04:45:19.964Z,11.60
2019-05-26T04:46:19.933Z,11.30
2019-05-26T04:47:19.966Z,12.30
2019-05-26T04:48:19.903Z,12.20
2019-05-26T04:49:19.894Z,11.70
2019-05-26T04:50:19.907Z,11.70
2019-05-26T04:51:19.872Z,11.70
2019-05-26T04:52:19.863Z,13.20
2019-05-26T04:53:19.855Z,12.50
2019-05-26T04:54:19.846Z,11.00
2019-05-26T04:55:19.849Z,10.80
2019-05-26T04:56:19.814Z,11.40
2019-05-26T04:57:19.817Z,12.20
2019-05-26T04:58:19.800Z,12.10
2019-05-26T04:59:19.778Z,11.20
2019-05-26T05:00:19.793Z,13.00
2019-05-26T05:01:19.758Z,12.30
2019-05-26T05:02:19.743Z,12.80
2019-05-26T05:03:19.738Z,12.10
2019-05-26T05:04:19.721Z,12.20
2019-05-26T05:05:19.744Z,12.40
2019-05-26T05:06:19.707Z,11.30
2019-05-26T05:07:19.687Z,12.70
2019-05-26T05:08:19.678Z,11.80
2019-05-26T05:09:19.665Z,11.00
2019-05-26T05:10:19.679Z,11.30
2019-05-26T05:11:19.642Z,12.40
2019-05-26T05:12:19.631Z,12.30
2019-05-26T05:13:19.623Z,12.10
2019-05-26T05:14:19.608Z,12.50
2019-05-26T05:15:19.621Z,12.50
2019-05-26T05:16:19.585Z,12.40
2019-05-26T05:17:19.575Z,12.70
2019-05-26T05:18:19.568Z,11.00
2019-05-26T05:19:19.553Z,11.90
2019-05-26T05:20:19.565Z,12.00
2019-05-26T05:21:19.530Z,11.00
2019-05-26T05:22:19.518Z,11.90
2019-05-26T05:23:19.506Z,11.40
2019-05-26T05:24:19.497Z,12.10
2019-05-26T05:25:19.509Z,12.70
2019-05-26T05:26:19.474Z,11.00
2019-05-26T05:27:19.461Z,11.60
2019-05-26T05:28:19.454Z,11.50
2019-05-26T05:29:19.458Z,11.90
2019-05-26T05:30:19.450Z,12.90
2019-05-26T05:31:19.415Z,11.30
2019-05-26T05:32:19.405Z,11.80
2019-05-26T05:33:19.392Z,12.30
2019-05-26T05:34:19.382Z,11.90
2019-05-26T05:35:19.398Z,11.80
2019-05-26T05:36:19.364Z,12.90
2019-05-26T05:37:19.348Z,12.70
2019-05-26T05:38:19.341Z,12.70
2019-05-26T05:39:19.324Z,13.00
2019-05-26T05:40:19.342Z,11.90
2019-05-26T05:41:19.302Z,11.80
2019-05-26T05:42:19.290Z,12.50
2019-05-26T05:43:19.283Z,12.30
2019-05-26T05:44:19.267Z,12.40
2019-05-26T05:45:19.286Z,12.10
2019-05-26T05:46:19.247Z,12.80
2019-05-26T05:47:19.235Z,12.70
2019-05-26T05:48:19.226Z,12.20
2019-05-26T05:49:19.214Z,12.50
2019-05-26T05:50:19.228Z,11.90
2019-05-26T05:51:19.191Z,12.60
2019-05-26T05:52:19.180Z,11.90
2019-05-26T05:53:19.173Z,12.80
2019-05-26T05:54:19.158Z,12.20
2019-05-26T05:55:19.160Z,11.80
2019-05-26T05:56:19.164Z,12.80
2019-05-26T05:57:19.156Z,11.50
2019-05-26T05:58:19.131Z,11.40
2019-05-26T05:59:19.099Z,11.90
2019-05-26T06:00:19.091Z,12.50
2019-05-26T06:01:19.102Z,12.60
2019-05-26T06:02:19.065Z,12.30
2019-05-26T06:03:19.113Z,12.20
2019-05-26T06:04:19.043Z,12.20
2019-05-26T06:05:19.033Z,12.70
2019-05-26T06:06:19.050Z,12.30
2019-05-26T06:07:19.007Z,12.40
2019-05-26T06:08:19.127Z,11.70
2019-05-26T06:09:18.986Z,12.40
2019-05-26T06:10:18.975Z,13.00
2019-05-26T06:11:18.992Z,12.70
2019-05-26T06:12:18.953Z,12.40
2019-05-26T06:13:18.942Z,12.40
2019-05-26T06:14:19.013Z,13.50
2019-05-26T06:15:18.917Z,12.60
2019-05-26T06:16:18.938Z,12.20
2019-05-26T06:17:18.897Z,12.00
2019-05-26T06:18:18.885Z,12.70
2019-05-26T06:19:18.873Z,12.70
2019-05-26T06:20:18.860Z,12.40
2019-05-26T06:21:18.878Z,12.30
2019-05-26T06:22:18.839Z,12.70
2019-05-26T06:23:18.830Z,12.10
2019-05-26T06:24:18.820Z,11.80
2019-05-26T06:25:18.805Z,12.20
2019-05-26T06:26:18.833Z,13.00
2019-05-26T06:27:18.782Z,12.40
2019-05-26T06:28:18.775Z,11.40
2019-05-26T06:29:18.759Z,11.90
2019-05-26T06:30:18.754Z,12.20
2019-05-26T06:31:18.771Z,12.50
2019-05-26T06:32:18.769Z,12.10
2019-05-26T06:33:18.716Z,12.10
2019-05-26T06:34:18.729Z,10.70
2019-05-26T06:35:18.692Z,10.80
2019-05-26T06:36:18.712Z,11.80
2019-05-26T06:37:18.669Z,11.00
2019-05-26T06:38:18.657Z,11.70
2019-05-26T06:39:18.648Z,11.90
2019-05-26T06:40:18.636Z,11.10
2019-05-26T06:41:32.203Z,11.30
2019-05-26T06:42:19.612Z,11.30
2019-05-26T06:43:18.605Z,10.80
2019-05-26T06:44:18.592Z,11.20
2019-05-26T06:45:18.576Z,12.10
2019-05-26T06:46:18.570Z,11.80
2019-05-26T06:47:18.581Z,10.60
2019-05-26T06:48:18.549Z,10.00
2019-05-26T06:49:18.543Z,10.50
2019-05-26T06:50:18.538Z,9.90
2019-05-26T06:51:18.512Z,10.60
2019-05-26T06:52:18.525Z,10.40
2019-05-26T06:53:18.489Z,10.00
2019-05-26T06:54:18.478Z,10.20
2019-05-26T06:55:18.465Z,10.20
2019-05-26T06:56:18.453Z,9.80
2019-05-26T06:57:18.471Z,10.50
2019-05-26T06:58:18.435Z,9.80
2019-05-26T06:59:18.430Z,9.30
2019-05-26T07:00:18.424Z,9.80
2019-05-26T07:01:18.396Z,9.30
2019-05-26T07:02:18.414Z,10.60
2019-05-26T07:03:18.376Z,9.40
2019-05-26T07:04:18.365Z,8.90
2019-05-26T07:05:18.738Z,8.90
2019-05-26T07:06:18.344Z,9.10
2019-05-26T07:07:18.359Z,9.20
2019-05-26T07:08:18.317Z,10.10
2019-05-26T07:09:18.310Z,9.20
2019-05-26T07:10:18.296Z,9.70
2019-05-26T07:11:18.284Z,9.70
2019-05-26T07:12:18.296Z,9.70
2019-05-26T07:13:18.262Z,8.70
2019-05-26T07:14:18.251Z,9.00
2019-05-26T07:15:18.238Z,8.10
2019-05-26T07:16:18.226Z,8.20
2019-05-26T07:17:20.474Z,8.60
2019-05-26T07:18:18.229Z,9.00
2019-05-26T07:19:18.191Z,9.10
2019-05-26T07:20:18.180Z,9.70
2019-05-26T07:21:18.171Z,9.60
2019-05-26T07:22:18.161Z,9.40
2019-05-26T07:23:18.172Z,9.40
2019-05-26T07:24:18.136Z,9.20
2019-05-26T07:25:18.123Z,10.00
2019-05-26T07:26:18.116Z,8.40
2019-05-26T07:27:18.104Z,8.50
2019-05-26T07:28:18.117Z,8.60
2019-05-26T07:29:18.089Z,9.10
2019-05-26T07:30:18.143Z,9.20
2019-05-26T07:31:18.055Z,8.40
2019-05-26T07:32:18.048Z,9.00
2019-05-26T07:33:18.059Z,7.90
2019-05-26T07:34:18.030Z,8.30
2019-05-26T07:35:18.010Z,8.30
2019-05-26T07:36:18.073Z,8.60
2019-05-26T07:37:17.988Z,8.90
2019-05-26T07:38:18.004Z,8.80
2019-05-26T07:39:18.018Z,8.10
2019-05-26T07:40:17.955Z,9.30
2019-05-26T07:41:17.943Z,9.40
2019-05-26T07:42:17.930Z,7.80
2019-05-26T07:43:17.947Z,8.10
2019-05-26T07:44:17.910Z,8.00
2019-05-26T07:45:17.898Z,7.90
2019-05-26T07:46:17.890Z,7.60
2019-05-26T07:47:17.878Z,7.70
2019-05-26T07:48:17.892Z,7.30
2019-05-26T07:49:17.856Z,7.80
2019-05-26T07:50:17.850Z,7.00
2019-05-26T07:51:17.829Z,7.60
2019-05-26T07:52:17.822Z,7.00
2019-05-26T07:53:17.833Z,7.10
2019-05-26T07:54:25.650Z,7.00
2019-05-26T07:55:18.783Z,7.70
2019-05-26T07:56:17.776Z,7.10
2019-05-26T07:57:17.764Z,7.80
2019-05-26T07:58:17.782Z,7.30
2019-05-26T07:59:17.798Z,7.70
2019-05-26T08:00:17.743Z,7.50
2019-05-26T08:01:17.720Z,7.40
2019-05-26T08:02:17.705Z,7.90
2019-05-26T08:03:17.704Z,6.70
2019-05-26T08:04:17.710Z,6.70
2019-05-26T08:05:17.672Z,6.50
2019-05-26T08:06:17.661Z,7.50
2019-05-26T08:07:17.654Z,7.70
2019-05-26T08:08:17.645Z,7.50
2019-05-26T08:09:17.654Z,7.10
2019-05-26T08:10:17.624Z,6.80
2019-05-26T08:11:17.603Z,6.80
2019-05-26T08:12:26.894Z,6.60
2019-05-26T08:13:18.582Z,6.60
2019-05-26T08:14:17.596Z,6.60
2019-05-26T08:15:17.558Z,6.30
2019-05-26T08:16:17.555Z,5.80
2019-05-26T08:17:17.570Z,6.70
2019-05-26T08:18:17.535Z,6.10
2019-05-26T08:19:17.537Z,5.60
2019-05-26T08:20:17.502Z,6.20
2019-05-26T08:21:17.490Z,6.10
2019-05-26T08:22:17.480Z,7.10
2019-05-26T08:23:17.479Z,6.10
2019-05-26T08:24:17.481Z,5.50
2019-05-26T08:25:17.446Z,5.50
2019-05-26T08:26:17.437Z,3.20
2019-05-26T08:27:17.424Z,3.40
2019-05-26T08:28:17.411Z,3.40
2019-05-26T08:29:17.455Z,2.90
2019-05-26T08:30:17.388Z,3.10
2019-05-26T08:31:17.377Z,3.50
2019-05-26T08:32:17.366Z,3.60
2019-05-26T08:33:17.354Z,3.60
2019-05-26T08:34:17.346Z,3.60
2019-05-26T08:35:17.367Z,3.70
2019-05-26T08:36:17.321Z,3.00
2019-05-26T08:37:17.312Z,3.70
2019-05-26T08:38:17.301Z,3.40
2019-05-26T08:39:17.287Z,3.40
2019-05-26T08:40:17.303Z,3.70
2019-05-26T08:41:17.271Z,3.60
2019-05-26T08:42:26.874Z,4.00
2019-05-26T08:43:18.240Z,4.00
2019-05-26T08:44:17.231Z,3.30
2019-05-26T08:45:21.104Z,3.40
2019-05-26T08:46:17.208Z,3.50
2019-05-26T08:47:17.202Z,3.60
2019-05-26T08:48:17.185Z,3.20
2019-05-26T08:49:17.175Z,3.30
2019-05-26T08:50:17.191Z,3.30
2019-05-26T08:51:17.154Z,3.60
2019-05-26T08:52:17.143Z,3.20
2019-05-26T08:53:17.146Z,3.90
2019-05-26T08:54:17.117Z,4.20
2019-05-26T08:55:17.141Z,3.80
2019-05-26T08:56:17.099Z,3.70
2019-05-26T08:57:17.085Z,3.10
2019-05-26T08:58:17.095Z,2.90
2019-05-26T08:59:17.064Z,2.70
2019-05-26T09:00:17.080Z,3.00
2019-05-26T09:01:17.056Z,3.10
2019-05-26T09:02:17.031Z,3.00
2019-05-26T09:03:17.024Z,2.60
2019-05-26T09:04:17.005Z,3.20
2019-05-26T09:05:17.049Z,2.40
2019-05-26T09:06:16.982Z,2.40
2019-05-26T09:07:16.971Z,2.40
2019-05-26T09:08:16.960Z,2.50
2019-05-26T09:09:16.950Z,2.40
2019-05-26T09:10:16.943Z,2.40
2019-05-26T09:11:16.960Z,2.20
2019-05-26T09:12:16.915Z,2.20
2019-05-26T09:13:16.904Z,2.40
2019-05-26T09:14:16.892Z,2.40
2019-05-26T09:15:16.880Z,2.30
2019-05-26T09:16:16.896Z,2.40
2019-05-26T09:17:16.867Z,2.30
2019-05-26T09:18:16.848Z,2.50
2019-05-26T09:19:16.835Z,2.80
2019-05-26T09:20:16.824Z,2.40
2019-05-26T09:21:16.838Z,2.50
2019-05-26T09:22:16.801Z,2.40
2019-05-26T09:23:16.792Z,2.50
2019-05-26T09:24:16.778Z,2.70
2019-05-26T09:25:16.768Z,2.10
2019-05-26T09:26:16.783Z,2.50
2019-05-26T09:27:16.746Z,2.60
2019-05-26T09:28:16.734Z,2.40
2019-05-26T09:29:16.729Z,2.60
2019-05-26T09:30:16.712Z,2.50
2019-05-26T09:31:16.725Z,2.10
2019-05-26T09:32:16.688Z,2.10
2019-05-26T09:33:16.676Z,1.70
2019-05-26T09:34:16.666Z,1.70
2019-05-26T09:35:16.655Z,1.70
2019-05-26T09:36:16.721Z,1.90
2019-05-26T09:37:16.670Z,1.50
2019-05-26T09:38:16.631Z,1.70
2019-05-26T09:39:16.609Z,1.50
2019-05-26T09:40:16.598Z,1.60
2019-05-26T09:41:16.588Z,1.30
2019-05-26T09:42:16.601Z,1.30
2019-05-26T09:43:16.929Z,1.70
2019-05-26T09:44:16.564Z,1.50
2019-05-26T09:45:16.543Z,1.40
2019-05-26T09:46:16.530Z,1.50
2019-05-26T09:47:16.544Z,1.50
2019-05-26T09:48:16.509Z,1.40
2019-05-26T09:49:16.497Z,2.00
2019-05-26T09:50:16.493Z,1.90
2019-05-26T09:51:16.478Z,1.60
2019-05-26T09:52:16.488Z,1.50
2019-05-26T09:53:16.454Z,1.70
2019-05-26T09:54:16.443Z,1.70
2019-05-26T09:55:16.438Z,1.60
2019-05-26T09:56:16.421Z,1.50
2019-05-26T09:57:16.433Z,1.20
2019-05-26T09:58:16.401Z,1.50
2019-05-26T09:59:16.399Z,1.30
2019-05-26T10:00:16.545Z,1.30
2019-05-26T10:01:16.374Z,1.20
2019-05-26T10:02:21.781Z,1.30
2019-05-26T10:03:16.347Z,1.30
2019-05-26T10:04:16.332Z,1.50
2019-05-26T10:05:16.320Z,1.10
2019-05-26T10:06:16.306Z,1.60
2019-05-26T10:07:16.328Z,1.50
2019-05-26T10:08:16.316Z,1.50
2019-05-26T10:09:16.272Z,1.30
2019-05-26T10:10:16.270Z,1.30
2019-05-26T10:11:16.251Z,1.40
2019-05-26T10:12:16.268Z,1.30
2019-05-26T10:13:29.145Z,1.50
2019-05-26T10:14:17.216Z,1.40
2019-05-26T10:15:16.205Z,1.50
2019-05-26T10:16:16.194Z,1.50
2019-05-26T10:17:16.187Z,1.50
2019-05-26T10:18:16.208Z,1.30
2019-05-26T10:19:16.166Z,1.60
2019-05-26T10:20:16.147Z,1.80
2019-05-26T10:21:16.144Z,1.20
2019-05-26T10:22:16.125Z,1.40
2019-05-26T10:23:16.138Z,1.80
2019-05-26T10:24:16.113Z,1.30
2019-05-26T10:25:16.092Z,1.20
2019-05-26T10:26:16.082Z,1.30
2019-05-26T10:27:16.071Z,1.40
2019-05-26T10:28:16.083Z,1.40
2019-05-26T10:29:16.048Z,1.30
2019-05-26T10:30:16.046Z,1.30
2019-05-26T10:31:16.024Z,1.30
2019-05-26T10:32:16.012Z,1.20
2019-05-26T10:33:16.026Z,1.30
2019-05-26T10:34:15.992Z,1.40
2019-05-26T10:35:15.978Z,1.20
2019-05-26T10:36:15.971Z,1.40
2019-05-26T10:37:15.960Z,1.30
2019-05-26T10:38:15.973Z,1.20
2019-05-26T10:39:15.935Z,1.40
2019-05-26T10:40:15.924Z,1.20
2019-05-26T10:41:15.913Z,1.40
2019-05-26T10:42:15.911Z,1.30
2019-05-26T10:43:15.924Z,1.30
2019-05-26T10:44:15.880Z,1.20
2019-05-26T10:45:15.868Z,1.10
2019-05-26T10:46:15.856Z,1.10
2019-05-26T10:47:15.846Z,1.20
2019-05-26T10:48:15.865Z,1.00
2019-05-26T10:49:15.822Z,1.10
2019-05-26T10:50:15.816Z,1.20
2019-05-26T10:51:15.800Z,1.10
2019-05-26T10:52:15.788Z,1.20
2019-05-26T10:53:15.779Z,1.10
2019-05-26T10:54:15.797Z,1.30
2019-05-26T10:55:15.860Z,1.10
2019-05-26T10:56:15.747Z,1.30
2019-05-26T10:57:15.734Z,1.10
2019-05-26T10:58:15.733Z,1.00
2019-05-26T10:59:15.735Z,0.90
2019-05-26T11:00:15.701Z,1.00
2019-05-26T11:01:15.696Z,1.10
2019-05-26T11:02:15.677Z,0.80
2019-05-26T11:03:15.671Z,1.10
2019-05-26T11:04:15.684Z,0.90
2019-05-26T11:05:15.645Z,1.00
2019-05-26T11:06:15.636Z,0.90
2019-05-26T11:07:15.626Z,1.00
2019-05-26T11:08:15.611Z,1.20
2019-05-26T11:09:15.659Z,1.30
2019-05-26T11:10:15.588Z,1.10
2019-05-26T11:11:15.578Z,1.10
2019-05-26T11:12:15.566Z,1.10
2019-05-26T11:13:15.556Z,1.20
2019-05-26T11:14:15.574Z,1.10
2019-05-26T11:15:15.531Z,1.10
2019-05-26T11:16:15.521Z,1.10
2019-05-26T11:17:15.512Z,1.20
2019-05-26T11:18:15.499Z,1.40
2019-05-26T11:19:15.521Z,1.30
2019-05-26T11:20:15.482Z,1.40
2019-05-26T11:21:15.470Z,1.20
2019-05-26T11:22:15.455Z,1.30
2019-05-26T11:23:15.444Z,1.30
2019-05-26T11:24:15.457Z,1.30
2019-05-26T11:25:15.420Z,1.10
2019-05-26T11:26:15.409Z,1.30
2019-05-26T11:27:15.505Z,1.30
2019-05-26T11:28:15.391Z,1.10
2019-05-26T11:29:15.400Z,1.10
2019-05-26T11:30:15.364Z,1.20
2019-05-26T11:31:15.353Z,1.10
2019-05-26T11:32:15.344Z,1.20
2019-05-26T11:33:15.344Z,1.40
2019-05-26T11:34:15.344Z,1.10
2019-05-26T11:35:15.310Z,1.40
2019-05-26T11:36:15.298Z,1.30
2019-05-26T11:37:15.286Z,1.20
2019-05-26T11:38:15.274Z,1.40
2019-05-26T11:39:15.272Z,1.10
2019-05-26T11:40:15.280Z,1.00
2019-05-26T11:41:15.241Z,1.20
2019-05-26T11:42:15.385Z,1.20
2019-05-26T11:43:17.115Z,1.10
2019-05-26T11:44:18.053Z,1.20
2019-05-26T11:45:15.221Z,1.20
2019-05-26T11:46:16.804Z,1.10
2019-05-26T11:47:15.180Z,1.10
2019-05-26T11:48:15.163Z,1.10
2019-05-26T11:49:15.151Z,1.30
2019-05-26T11:50:15.166Z,1.30
2019-05-26T11:51:15.130Z,1.50
2019-05-26T11:52:15.132Z,1.10
2019-05-26T11:53:15.107Z,1.10
2019-05-26T11:54:15.096Z,1.40
2019-05-26T11:55:15.146Z,1.10
2019-05-26T11:56:15.074Z,1.40
2019-05-26T11:57:15.062Z,1.40
2019-05-26T11:58:15.054Z,1.10
2019-05-26T11:59:15.040Z,1.20
2019-05-26T12:00:15.110Z,1.20
2019-05-26T12:01:15.017Z,1.10
2019-05-26T12:02:15.008Z,1.00
2019-05-26T12:03:14.995Z,1.10
2019-05-26T12:04:14.992Z,1.00
2019-05-26T12:05:17.557Z,1.10
2019-05-26T12:06:14.965Z,0.90
2019-05-26T12:07:14.953Z,1.30
2019-05-26T12:08:14.939Z,1.20
2019-05-26T12:09:14.928Z,1.00
2019-05-26T12:10:14.968Z,1.20
2019-05-26T12:11:14.906Z,0.90
2019-05-26T12:12:14.895Z,1.40
2019-05-26T12:13:14.899Z,1.30
2019-05-26T12:14:14.872Z,1.00
2019-05-26T12:15:14.887Z,1.10
2019-05-26T12:16:14.857Z,1.30
2019-05-26T12:17:14.841Z,1.20
2019-05-26T12:18:14.833Z,1.10
2019-05-26T12:19:14.816Z,1.10
2019-05-26T12:20:14.833Z,1.10
2019-05-26T12:21:14.796Z,1.00
2019-05-26T12:22:14.788Z,1.30
2019-05-26T12:23:14.771Z,1.00
2019-05-26T12:24:14.761Z,1.50
2019-05-26T12:25:14.828Z,1.20
2019-05-26T12:26:14.737Z,1.20
2019-05-26T12:27:14.726Z,1.20
2019-05-26T12:28:14.720Z,1.20
2019-05-26T12:29:14.719Z,1.10
2019-05-26T12:30:14.695Z,1.60
2019-05-26T12:31:14.707Z,1.10
2019-05-26T12:32:14.670Z,1.20
2019-05-26T12:33:14.701Z,1.10
2019-05-26T12:34:14.651Z,1.30
2019-05-26T12:35:14.644Z,1.30
2019-05-26T12:36:14.652Z,0.90
2019-05-26T12:37:14.622Z,1.10
2019-05-26T12:38:14.604Z,1.00
2019-05-26T12:39:14.592Z,1.10
2019-05-26T12:40:14.583Z,1.10
2019-05-26T12:41:14.603Z,1.10
2019-05-26T12:42:17.027Z,1.00
2019-05-26T12:43:14.549Z,1.00
2019-05-26T12:44:14.536Z,1.00
2019-05-26T12:45:14.529Z,0.90
2019-05-26T12:46:14.542Z,1.00
2019-05-26T12:47:14.513Z,1.00
2019-05-26T12:48:14.492Z,1.20
2019-05-26T12:49:14.482Z,0.90
2019-05-26T12:50:14.469Z,0.80
2019-05-26T12:51:14.485Z,1.10
2019-05-26T12:52:14.447Z,1.20
2019-05-26T12:53:14.445Z,0.90
2019-05-26T12:54:14.424Z,0.80
2019-05-26T12:55:14.416Z,1.10
2019-05-26T12:56:14.427Z,1.20
2019-05-26T12:57:14.391Z,1.10
2019-05-26T12:58:14.421Z,1.10
2019-05-26T12:59:14.373Z,1.00
2019-05-26T13:00:14.367Z,1.00
2019-05-26T13:01:14.380Z,1.00
2019-05-26T13:02:14.340Z,1.00
2019-05-26T13:03:14.323Z,1.00
2019-05-26T13:04:14.311Z,1.10
2019-05-26T13:05:14.303Z,0.90
2019-05-26T13:06:17.445Z,1.00
2019-05-26T13:07:14.280Z,1.10
2019-05-26T13:08:14.276Z,1.10
2019-05-26T13:09:14.258Z,1.00
2019-05-26T13:10:14.245Z,1.00
2019-05-26T13:11:14.285Z,1.50